Data for 04/05/2014

Time Sea-Level Adjusted Pressure Absolute Pressure Temperature Relative Humidity Dew Point   
(mb) (inHg) (mb) (inHg) (C) (F) (%) (C) (F)
00:05 1013 29.91 843 24.89 0.8 33.5 93 -0.2 31.6
00:10 1013 29.91 843 24.89 0.8 33.4 93 -0.3 31.5
00:15 1014 29.94 843 24.89 0.7 33.2 93 -0.4 31.3
00:20 1014 29.94 843 24.89 0.5 33 93 -0.4 31.2
00:25 1014 29.94 843 24.89 0.5 32.9 93 -0.5 31.2
00:30 1014 29.94 843 24.89 0.4 32.7 94 -0.5 31.1
00:35 1014 29.94 843 24.89 0.3 32.6 94 -0.6 31
00:40 1014 29.94 843 24.89 0.2 32.4 95 -0.6 31
00:45 1014 29.94 843 24.89 0.3 32.5 95 -0.5 31.1
00:50 1013 29.91 843 24.89 0.2 32.4 95 -0.5 31
00:55 1013 29.91 843 24.89 0.1 32.2 95 -0.6 30.9
01:00 1013 29.91 843 24.89 0.1 32.1 95 -0.6 30.9
01:05 1013 29.91 843 24.89 0.1 32.1 95 -0.6 31
01:10 1013 29.91 843 24.89 0.1 32.2 95 -0.6 31
01:15 1013 29.91 842 24.86 0.1 32.1 95 -0.6 31
01:20 1013 29.91 842 24.86 0 32.1 95 -0.6 30.9
01:25 1013 29.91 842 24.86 0 32.1 96 -0.6 30.9
01:30 1013 29.91 843 24.89 0.1 32.2 95 -0.6 31
01:35 1013 29.91 842 24.86 0.1 32.2 95 -0.6 31
01:40 1013 29.91 842 24.86 0.1 32.2 95 -0.6 31
01:45 1013 29.91 842 24.86 0.1 32.1 95 -0.6 30.9
01:50 1013 29.91 842 24.86 0.1 32.2 95 -0.6 30.9
01:55 1013 29.91 842 24.86 0.2 32.4 95 -0.5 31.1
02:00 1013 29.91 842 24.86 0.3 32.5 95 -0.4 31.2
02:05 1013 29.91 842 24.86 0.3 32.5 95 -0.5 31.1
02:10 1013 29.91 842 24.86 0.2 32.3 94 -0.6 30.9
02:15 1013 29.91 842 24.86 0.2 32.3 95 -0.6 30.9
02:20 1013 29.91 842 24.86 0.2 32.3 95 -0.6 30.9
02:25 1013 29.91 842 24.86 0.1 32.1 95 -0.6 30.9
02:30 1013 29.91 842 24.86 0.1 32.2 95 -0.6 30.9
02:35 1013 29.91 842 24.86 0.2 32.3 95 -0.6 31
02:40 1013 29.91 842 24.86 0.2 32.4 94 -0.6 31
02:45 1013 29.91 842 24.86 0.3 32.5 94 -0.6 31
02:50 1013 29.91 842 24.86 0.3 32.6 94 -0.6 31
02:55 1013 29.91 842 24.86 0.3 32.6 94 -0.5 31
03:00 1013 29.91 842 24.86 0.4 32.7 93 -0.6 31
03:05 1013 29.91 842 24.86 0.5 32.9 93 -0.5 31.1
03:10 1013 29.91 842 24.86 0.6 33 93 -0.5 31.1
03:15 1013 29.91 842 24.86 0.6 33.1 93 -0.5 31.2
03:20 1013 29.91 842 24.86 0.6 33 93 -0.5 31.2
03:25 1013 29.91 842 24.86 0.6 33.1 93 -0.4 31.3
03:30 1013 29.91 842 24.86 0.6 33.1 93 -0.4 31.3
03:35 1013 29.91 843 24.89 0.7 33.3 93 -0.3 31.4
03:40 1013 29.91 843 24.89 0.8 33.4 93 -0.3 31.5
03:45 1013 29.91 843 24.89 0.8 33.4 93 -0.3 31.5
03:50 1013 29.91 843 24.89 0.6 33 94 -0.3 31.4
03:55 1013 29.91 843 24.89 0.4 32.7 95 -0.4 31.3
04:00 1013 29.91 843 24.89 0.2 32.4 95 -0.5 31.1
04:05 1013 29.91 843 24.89 0.1 32.2 96 -0.5 31.1
04:10 1013 29.91 843 24.89 0.1 32.2 96 -0.5 31.1
04:15 1014 29.94 843 24.89 0.1 32.1 96 -0.5 31.1
04:20 1014 29.94 843 24.89 0.1 32.1 96 -0.5 31.1
04:25 1014 29.94 843 24.89 0 32.1 96 -0.5 31.1
04:30 1013 29.91 843 24.89 0 32.1 96 -0.5 31.1
04:35 1013 29.91 843 24.89 0 32 96 -0.5 31.1
04:40 1013 29.91 843 24.89 0 32 96 -0.5 31.1
04:45 1014 29.94 843 24.89 0 32 96 -0.5 31.1
04:50 1014 29.94 843 24.89 -0 32 96 -0.5 31.1
04:55 1014 29.94 843 24.89 -0 32 96 -0.5 31
05:00 1014 29.94 843 24.89 -0 32 96 -0.5 31.1
05:05 1014 29.94 843 24.89 -0 32 96 -0.5 31
05:10 1014 29.94 843 24.89 -0 31.9 96 -0.6 31
05:15 1014 29.94 843 24.89 -0 31.9 96 -0.5 31
05:20 1014 29.94 843 24.89 -0 32 96 -0.5 31.1
05:25 1014 29.94 843 24.89 -0 32 97 -0.5 31.1
05:30 1014 29.94 843 24.89 -0 32 97 -0.5 31.1
05:35 1014 29.94 843 24.89 0.1 32.1 96 -0.5 31.2
05:40 1014 29.94 843 24.89 0.2 32.3 96 -0.4 31.4
05:45 1014 29.94 843 24.89 0.2 32.4 96 -0.3 31.4
05:50 1014 29.94 843 24.89 0.2 32.4 96 -0.3 31.4
05:55 1014 29.94 843 24.89 0.2 32.4 96 -0.4 31.3
06:00 1014 29.94 843 24.89 0.3 32.5 96 -0.3 31.4
06:05 1014 29.94 843 24.89 0.4 32.6 95 -0.4 31.4
06:10 1014 29.94 843 24.89 0.4 32.7 95 -0.4 31.4
06:15 1014 29.94 843 24.89 0.5 32.9 94 -0.4 31.4
06:20 1014 29.94 843 24.89 0.6 33 93 -0.4 31.3
06:25 1014 29.94 843 24.89 0.6 33 93 -0.4 31.2
06:30 1014 29.94 843 24.89 0.5 32.9 93 -0.5 31
06:35 1014 29.94 843 24.89 0.6 33.1 91 -0.7 30.8
06:40 1014 29.94 844 24.92 0.8 33.4 91 -0.5 31
06:45 1014 29.94 844 24.92 0.7 33.2 92 -0.4 31.2
06:50 1014 29.94 844 24.92 0.5 32.9 94 -0.4 31.3
06:55 1014 29.94 844 24.92 0.7 33.2 94 -0.2 31.6
07:00 1014 29.94 844 24.92 0.9 33.6 93 -0.1 31.8
07:05 1014 29.94 844 24.92 1 33.8 93 -0.1 31.9
07:10 1014 29.94 844 24.92 1.6 34.8 92 0.4 32.7
07:15 1015 29.97 844 24.92 2 35.6 88 0.2 32.4
07:20 1015 29.97 844 24.92 1.6 34.8 89 -0.1 31.8
07:25 1015 29.97 844 24.92 1.3 34.3 87 -0.6 30.8
07:30 1015 29.97 844 24.92 1.2 34.1 86 -1 30.3
07:35 1015 29.97 844 24.92 1.2 34.2 82 -1.6 29.2
07:40 1015 29.97 844 24.92 1.3 34.3 79 -2 28.5
07:45 1015 29.97 844 24.92 1.3 34.3 76 -2.6 27.4
07:50 1015 29.97 844 24.92 1.5 34.7 78 -1.9 28.6
07:55 1015 29.97 844 24.92 1.6 34.9 79 -1.6 29
08:00 1015 29.97 844 24.92 1.6 34.8 79 -1.6 29
08:05 1015 29.97 844 24.92 1.6 34.9 77 -2 28.5
08:10 1015 29.97 844 24.92 1.8 35.2 77 -1.8 28.7
08:15 1015 29.97 844 24.92 1.8 35.2 78 -1.7 29
08:20 1015 29.97 844 24.92 1.5 34.6 82 -1.2 29.8
08:25 1015 29.97 844 24.92 1.4 34.5 82 -1.4 29.4
08:30 1015 29.97 844 24.92 1.4 34.5 81 -1.5 29.4
08:35 1015 29.97 844 24.92 1.5 34.7 80 -1.5 29.2
08:40 1015 29.97 844 24.92 1.5 34.7 81 -1.4 29.5
08:45 1015 29.97 844 24.92 1.5 34.7 80 -1.6 29.1
08:50 1015 29.97 844 24.92 1.4 34.6 78 -2.1 28.3
08:55 1015 29.97 844 24.92 1.6 34.9 75 -2.3 27.8
09:00 1015 29.97 844 24.92 1.8 35.2 74 -2.3 27.8
09:05 1015 29.97 844 24.92 1.9 35.4 73 -2.5 27.5
09:10 1015 29.97 844 24.92 2.1 35.9 71 -2.5 27.4
09:15 1015 29.97 844 24.92 2.2 35.9 74 -2 28.4
09:20 1015 29.97 844 24.92 1.9 35.5 77 -1.6 29.1
09:25 1015 29.97 844 24.92 2 35.5 75 -2 28.4
09:30 1015 29.97 844 24.92 2.4 36.3 73 -2 28.4
09:35 1015 29.97 844 24.92 2.6 36.7 72 -1.9 28.5
09:40 1015 29.97 844 24.92 2.8 37 70 -2.1 28.2
09:45 1015 29.97 844 24.92 3.3 37.9 69 -1.9 28.5
09:50 1015 29.97 844 24.92 3.8 38.8 67 -1.8 28.8
09:55 1015 29.97 844 24.92 4.1 39.4 64 -2.1 28.2
10:00 1015 29.97 844 24.92 3.4 38.2 66 -2.4 27.7
10:05 1015 29.97 844 24.92 3.4 38.2 63 -2.8 26.9
10:10 1015 29.97 844 24.92 3.8 38.9 61 -3.1 26.4
10:15 1015 29.97 844 24.92 4 39.2 59 -3.4 25.9
10:20 1015 29.97 844 24.92 4.3 39.7 59 -3.1 26.5
10:25 1015 29.97 844 24.92 4.8 40.6 55 -3.5 25.6
10:30 1015 29.97 844 24.92 4.4 39.9 58 -3.2 26.2
10:35 1015 29.97 844 24.92 4.5 40.2 58 -3.1 26.5
10:40 1015 29.97 844 24.92 4.8 40.6 53 -4 24.8
10:45 1015 29.97 844 24.92 5.1 41.2 53 -3.7 25.3
10:50 1015 29.97 844 24.92 5 41 52 -4 24.7
10:55 1015 29.97 844 24.92 5.6 42 51 -3.7 25.3
11:00 1015 29.97 844 24.92 5.2 41.3 55 -3.1 26.4
11:05 1015 29.97 844 24.92 5.4 41.7 55 -3 26.7
11:10 1015 29.97 844 24.92 5.3 41.6 57 -2.5 27.6
11:15 1015 29.97 844 24.92 5.9 42.5 52 -3.4 26
11:20 1015 29.97 844 24.92 5.7 42.2 56 -2.4 27.7
11:25 1015 29.97 844 24.92 6.2 43.2 50 -3.4 25.8
11:30 1015 29.97 844 24.92 5.9 42.5 47 -4.5 23.9
11:35 1015 29.97 844 24.92 6.3 43.4 46 -4.4 24
11:40 1015 29.97 844 24.92 6.6 43.9 47 -4 24.9
11:45 1015 29.97 844 24.92 6.8 44.3 50 -3 26.6
11:50 1015 29.97 844 24.92 7.4 45.4 44 -4.1 24.5
11:55 1015 29.97 844 24.92 8 46.4 53 -1.1 30.1
12:00 1015 29.97 844 24.92 6.8 44.3 61 -0.1 31.8
12:05 1015 29.97 844 24.92 6 42.9 59 -1.3 29.6
12:10 1015 29.97 844 24.92 6 42.9 58 -1.7 29
12:15 1015 29.97 844 24.92 7.1 44.8 56 -1.1 30.1
12:20 1015 29.97 844 24.92 7.9 46.3 45 -3.1 26.4
12:25 1015 29.97 844 24.92 8.1 46.6 48 -2.3 27.9
12:30 1015 29.97 844 24.92 8.6 47.4 45 -2.7 27.1
12:35 1014 29.94 844 24.92 8.6 47.5 46 -2.4 27.6
12:40 1014 29.94 844 24.92 8.3 46.9 47 -2.4 27.6
12:45 1014 29.94 844 24.92 8.2 46.7 44 -3.4 25.9
12:50 1014 29.94 844 24.92 8.3 46.9 45 -2.9 26.8
12:55 1014 29.94 843 24.89 8.9 48 43 -3 26.6
13:00 1014 29.94 843 24.89 9.3 48.8 38 -4.3 24.3
13:05 1014 29.94 843 24.89 9.3 48.7 37 -4.6 23.8
13:10 1014 29.94 843 24.89 9 48.1 38 -4.5 23.9
13:15 1014 29.94 843 24.89 8.3 46.9 43 -3.5 25.7
13:20 1014 29.94 843 24.89 7.4 45.4 42 -4.5 23.8
13:25 1014 29.94 843 24.89 7 44.6 46 -3.8 25.2
13:30 1014 29.94 843 24.89 6.6 43.9 48 -3.5 25.6
13:35 1014 29.94 843 24.89 6.6 43.9 51 -2.7 27.1
13:40 1014 29.94 843 24.89 5.4 41.7 58 -2.1 28.2
13:45 1014 29.94 843 24.89 5.8 42.4 56 -2.2 28
13:50 1014 29.94 843 24.89 7 44.6 48 -3.2 26.3
13:55 1014 29.94 843 24.89 7.4 45.4 48 -2.7 27.1
14:00 1014 29.94 843 24.89 7.8 46 45 -3.3 26
14:05 1014 29.94 843 24.89 7.6 45.6 43 -4.3 24.3
14:10 1014 29.94 843 24.89 7.3 45.1 47 -3.3 26
14:15 1014 29.94 843 24.89 7.1 44.8 47 -3.3 26
14:20 1014 29.94 843 24.89 7.2 45 46 -3.5 25.7
14:25 1014 29.94 843 24.89 7.3 45.2 51 -2.2 28
14:30 1014 29.94 843 24.89 7 44.6 51 -2.4 27.6
14:35 1014 29.94 843 24.89 6.9 44.3 48 -3.3 26.1
14:40 1014 29.94 843 24.89 6.6 43.9 54 -2.1 28.2
14:45 1014 29.94 843 24.89 6.4 43.6 52 -2.7 27.1
14:50 1014 29.94 843 24.89 6.3 43.4 54 -2.4 27.6
14:55 1014 29.94 843 24.89 6.4 43.5 51 -2.9 26.7
15:00 1014 29.94 843 24.89 6.4 43.5 48 -3.7 25.3
15:05 1014 29.94 843 24.89 6.7 44 47 -3.8 25.1
15:10 1014 29.94 843 24.89 7.4 45.3 43 -4.3 24.3
15:15 1014 29.94 843 24.89 7.5 45.6 43 -4.3 24.3
15:20 1014 29.94 843 24.89 7.9 46.3 40 -4.7 23.5
15:25 1014 29.94 843 24.89 8.1 46.6 41 -4.4 24.1
15:30 1014 29.94 843 24.89 8 46.4 40 -4.7 23.5
15:35 1014 29.94 843 24.89 8.2 46.8 40 -4.6 23.7
15:40 1013 29.91 843 24.89 8.6 47.5 34 -6.2 20.8
15:45 1014 29.94 843 24.89 8.5 47.3 40 -4.3 24.3
15:50 1014 29.94 843 24.89 8 46.3 38 -5.4 22.3
15:55 1014 29.94 843 24.89 8.4 47.1 31 -7.9 17.8
16:00 1014 29.94 843 24.89 8.7 47.7 34 -6.4 20.4
16:05 1014 29.94 843 24.89 7.6 45.7 33 -7.4 18.6
16:10 1014 29.94 843 24.89 7 44.7 37 -6.7 19.9
16:15 1014 29.94 843 24.89 7 44.7 40 -5.5 22.1
16:20 1014 29.94 843 24.89 7.1 44.8 32 -8.4 16.9
16:25 1014 29.94 843 24.89 7.6 45.7 36 -6.6 20.1
16:30 1014 29.94 843 24.89 7.3 45.2 37 -6.5 20.3
16:35 1014 29.94 843 24.89 7.7 45.9 35 -6.9 19.7
16:40 1014 29.94 843 24.89 8.3 46.9 32 -7.5 18.5
16:45 1014 29.94 843 24.89 8.4 47.1 31 -7.6 18.3
16:50 1014 29.94 843 24.89 8 46.4 32 -7.8 17.9
16:55 1014 29.94 843 24.89 7.9 46.2 32 -7.8 18
17:00 1014 29.94 843 24.89 8.2 46.7 31 -7.8 17.9
17:05 1014 29.94 843 24.89 8.4 47.1 28 -8.9 16
17:10 1014 29.94 843 24.89 8.8 47.8 28 -8.8 16.1
17:15 1014 29.94 843 24.89 8.9 48 25 -9.9 14.2
17:20 1014 29.94 843 24.89 8.9 48 25 -10 14
17:25 1014 29.94 843 24.89 8.7 47.7 26 -9.7 14.6
17:30 1014 29.94 843 24.89 8.7 47.6 26 -9.9 14.1
17:35 1014 29.94 843 24.89 8.6 47.5 26 -10.1 13.9
17:40 1014 29.94 843 24.89 8.5 47.3 26 -9.8 14.4
17:45 1014 29.94 843 24.89 8.4 47.1 27 -9.4 15
17:50 1014 29.94 843 24.89 8.2 46.8 27 -9.4 15
17:55 1014 29.94 843 24.89 8.1 46.7 28 -9.4 15.1
18:00 1014 29.94 843 24.89 8.1 46.6 28 -9.4 15.2
18:05 1014 29.94 843 24.89 8.2 46.7 29 -9 15.9
18:10 1014 29.94 843 24.89 8.1 46.5 29 -9 15.7
18:15 1014 29.94 843 24.89 8 46.3 29 -9.1 15.7
18:20 1014 29.94 843 24.89 7.9 46.2 29 -8.9 16
18:25 1014 29.94 843 24.89 7.8 46.1 30 -8.7 16.4
18:30 1014 29.94 843 24.89 7.7 45.8 30 -8.9 16.1
18:35 1014 29.94 843 24.89 7.6 45.7 30 -8.7 16.3
18:40 1014 29.94 843 24.89 7.4 45.4 30 -8.9 15.9
18:45 1014 29.94 843 24.89 7.3 45.1 31 -8.7 16.4
18:50 1014 29.94 843 24.89 7.1 44.7 32 -8.4 16.9
18:55 1014 29.94 843 24.89 6.8 44.3 33 -8.3 17
19:00 1014 29.94 843 24.89 6.6 43.9 34 -8.2 17.2
19:05 1014 29.94 843 24.89 6.5 43.6 34 -8.3 17.1
19:10 1014 29.94 843 24.89 6.4 43.5 35 -8.1 17.4
19:15 1014 29.94 843 24.89 6.2 43.2 35 -8.2 17.3
19:20 1014 29.94 843 24.89 6 42.8 36 -8.1 17.5
19:25 1014 29.94 843 24.89 5.8 42.5 37 -7.9 17.7
19:30 1014 29.94 844 24.92 5.6 42.2 38 -7.6 18.3
19:35 1014 29.94 844 24.92 5.5 41.8 39 -7.4 18.7
19:40 1014 29.94 844 24.92 5.3 41.6 41 -7 19.3
19:45 1015 29.97 844 24.92 5.2 41.4 41 -7 19.4
19:50 1015 29.97 844 24.92 5.1 41.2 42 -6.8 19.8
19:55 1015 29.97 844 24.92 5 41.1 43 -6.7 20
20:00 1015 29.97 844 24.92 5 41 43 -6.5 20.3
20:05 1015 29.97 844 24.92 5 40.9 44 -6.3 20.6
20:10 1015 29.97 844 24.92 4.8 40.6 47 -5.6 21.9
20:15 1015 29.97 844 24.92 4.4 39.9 48 -5.8 21.6
20:20 1015 29.97 845 24.95 4.2 39.5 47 -6.2 20.9
20:25 1015 29.97 845 24.95 4 39.2 49 -5.7 21.7
20:30 1015 29.97 845 24.95 3.7 38.7 52 -5.2 22.6
20:35 1015 29.97 845 24.95 3.6 38.5 51 -5.6 21.9
20:40 1015 29.97 845 24.95 3.7 38.6 49 -5.9 21.3
20:45 1015 29.97 845 24.95 3.8 38.9 48 -6.1 21
20:50 1015 29.97 845 24.95 4 39.2 49 -5.9 21.4
20:55 1016 30 845 24.95 3.9 39 49 -5.7 21.7
21:00 1016 30 845 24.95 3.7 38.7 51 -5.4 22.4
21:05 1015 29.97 845 24.95 3.3 38 53 -5.4 22.3
21:10 1016 30 845 24.95 3.3 37.9 48 -6.6 20.1
21:15 1016 30 845 24.95 3.7 38.7 47 -6.6 20
21:20 1015 29.97 845 24.95 3.9 39.1 45 -7.1 19.3
21:25 1015 29.97 845 24.95 4 39.2 44 -7.2 19
21:30 1016 30 845 24.95 4 39.2 44 -7.1 19.2
21:35 1016 30 845 24.95 3.9 39 44 -7.2 19.1
21:40 1016 30 845 24.95 3.9 38.9 43 -7.8 18
21:45 1016 30 845 24.95 3.9 39.1 42 -7.8 18
21:50 1016 30 845 24.95 4 39.2 42 -7.8 17.9
21:55 1016 30 845 24.95 3.3 38 49 -6.3 20.7
22:00 1016 30 845 24.95 2.6 36.7 53 -6 21.1
22:05 1016 30 845 24.95 2.4 36.3 56 -5.5 22.1
22:10 1016 30 845 24.95 2.5 36.5 55 -5.6 21.9
22:15 1015 29.97 845 24.95 2.4 36.4 56 -5.6 22
22:20 1015 29.97 845 24.95 2.4 36.4 58 -5.1 22.8
22:25 1016 30 845 24.95 2.2 36 58 -5.1 22.8
22:30 1015 29.97 845 24.95 2.1 35.8 58 -5.2 22.6
22:35 1016 30 845 24.95 2 35.5 60 -5 22.9
22:40 1015 29.97 845 24.95 1.9 35.4 56 -6 21.2
22:45 1016 30 845 24.95 2.4 36.4 52 -6.5 20.3
22:50 1016 30 845 24.95 2.7 36.9 51 -6.3 20.6
22:55 1016 30 845 24.95 2.5 36.5 54 -6 21.2
23:00 1016 30 845 24.95 2.3 36.1 51 -6.9 19.6
23:05 1016 30 845 24.95 2.6 36.6 50 -6.8 19.7
23:10 1016 30 845 24.95 2.7 36.9 48 -7.2 19.1
23:15 1016 30 845 24.95 2.6 36.7 53 -6 21.1
23:20 1016 30 845 24.95 2.2 35.9 55 -6 21.1
23:25 1016 30 845 24.95 2.1 35.8 54 -6.2 20.8
23:30 1016 30 845 24.95 2.3 36.2 50 -7.1 19.1
23:35 1016 30 845 24.95 2.7 36.8 48 -7.3 18.8
23:40 1015 29.97 845 24.95 2.8 37.1 49 -6.8 19.7
23:45 1015 29.97 845 24.95 2.7 36.8 51 -6.5 20.3
23:50 1015 29.97 845 24.95 2.3 36.1 56 -5.7 21.8
23:55 1015 29.97 845 24.95 1.7 35.1 58 -5.8 21.6
24:00 1015 29.97 844 24.92 1.6 34.8 55 -6.5 20.3